createdAt,value
2022-08-04T00:03:56.819Z,100266.71
2022-08-04T00:09:06.908Z,100271.98
2022-08-04T00:14:15.197Z,100271.77
2022-08-04T00:19:32.472Z,100278.30
2022-08-04T00:24:36.704Z,100286.41
2022-08-04T00:29:40.431Z,100291.20
2022-08-04T00:34:44.559Z,100287.95
2022-08-04T00:39:49.198Z,100284.45
2022-08-04T00:46:15.451Z,100280.61
2022-08-04T00:51:05.451Z,100274.63
2022-08-04T00:56:28.221Z,100277.91
2022-08-04T01:01:53.607Z,100276.89
2022-08-04T01:07:34.847Z,100278.30
2022-08-04T01:13:02.325Z,100280.47
2022-08-04T01:18:37.686Z,100286.58
2022-08-04T01:23:40.997Z,100289.70
2022-08-04T01:29:05.565Z,100286.91
2022-08-04T01:34:13.725Z,100282.70
2022-08-04T01:39:38.854Z,100278.02
2022-08-04T01:44:42.267Z,100276.68
2022-08-04T01:49:49.634Z,100270.27
2022-08-04T01:54:53.189Z,100264.14
2022-08-04T01:59:59.468Z,100266.86
2022-08-04T02:05:02.783Z,100263.45
2022-08-04T02:10:26.060Z,100257.25
2022-08-04T02:15:51.795Z,100252.31
2022-08-04T02:21:01.841Z,100249.09
2022-08-04T02:26:13.637Z,100246.73
2022-08-04T02:31:34.032Z,100239.67
2022-08-04T02:36:42.568Z,100242.48
2022-08-04T02:41:48.494Z,100243.47
2022-08-04T02:46:53.715Z,100246.06
2022-08-04T02:51:58.900Z,100242.88
2022-08-04T02:57:04.488Z,100244.70
2022-08-04T03:02:11.769Z,100239.39
2022-08-04T03:07:36.480Z,100234.98
2022-08-04T03:12:59.202Z,100238.47
2022-08-04T03:18:20.990Z,100232.47
2022-08-04T03:24:02.087Z,100246.54
2022-08-04T03:29:44.002Z,100249.24
2022-08-04T03:35:22.550Z,100251.63
2022-08-04T03:40:40.903Z,100253.66
2022-08-04T03:46:09.404Z,100260.60
2022-08-04T03:51:51.320Z,100256.53
2022-08-04T03:57:30.470Z,100262.71
2022-08-04T04:03:28.413Z,100263.02
2022-08-04T04:08:38.226Z,100266.42
2022-08-04T04:13:49.011Z,100271.61
2022-08-04T04:18:55.190Z,100273.41
2022-08-04T04:24:03.726Z,100277.33
2022-08-04T04:29:25.472Z,100276.73
2022-08-04T04:34:46.261Z,100279.73
2022-08-04T04:39:49.903Z,100275.42
2022-08-04T04:45:17.996Z,100276.02
2022-08-04T04:50:36.465Z,100281.27
2022-08-04T04:55:56.566Z,100288.71
2022-08-04T05:01:38.073Z,100287.44
2022-08-04T05:07:23.526Z,100288.44
2022-08-04T05:14:31.815Z,100299.75
2022-08-04T05:18:25.696Z,100300.67
2022-08-04T05:23:31.275Z,100305.27
2022-08-04T05:28:37.443Z,100304.67
2022-08-04T05:33:49.145Z,100307.13
2022-08-04T05:39:00.226Z,100306.70
2022-08-04T05:44:04.538Z,100305.84
2022-08-04T05:49:10.444Z,100314.15
2022-08-04T05:54:21.339Z,100319.78
2022-08-04T05:59:26.384Z,100324.79
2022-08-04T06:04:36.320Z,100322.45
2022-08-04T06:09:40.481Z,100328.66
2022-08-04T06:14:46.271Z,100330.25
2022-08-04T06:20:01.045Z,100329.50
2022-08-04T06:25:20.831Z,100333.30
2022-08-04T06:30:27.458Z,100335.45
2022-08-04T06:35:33.148Z,100339.38
2022-08-04T06:40:36.801Z,100337.23
2022-08-04T06:45:41.561Z,100338.70
2022-08-04T06:51:24.986Z,100343.70
2022-08-04T06:56:14.163Z,100341.42
2022-08-04T07:01:20.923Z,100337.91
2022-08-04T07:06:25.742Z,100338.70
2022-08-04T07:11:29.589Z,100339.66
2022-08-04T07:16:50.215Z,100343.13
2022-08-04T07:22:16.416Z,100345.98
2022-08-04T07:27:17.665Z,100351.40
2022-08-04T07:32:41.864Z,100351.72
2022-08-04T07:37:45.281Z,100352.60
2022-08-04T07:42:48.899Z,100356.81
2022-08-04T07:48:04.945Z,100350.14
2022-08-04T07:53:54.521Z,100350.53
2022-08-04T07:58:35.181Z,100354.11
2022-08-04T08:03:41.389Z,100349.86
2022-08-04T08:08:44.876Z,100348.69
2022-08-04T08:13:49.210Z,100347.52
2022-08-04T08:18:52.726Z,100344.71
2022-08-04T08:23:57.167Z,100345.73
2022-08-04T08:29:00.755Z,100347.67
2022-08-04T08:34:04.606Z,100344.54
2022-08-04T08:39:24.694Z,100345.78
2022-08-04T08:45:05.702Z,100348.48
2022-08-04T08:50:18.435Z,100349.60
2022-08-04T08:55:33.930Z,100359.02
2022-08-04T09:00:57.326Z,100360.45
2022-08-04T09:06:03.694Z,100362.16
2022-08-04T09:11:09.325Z,100358.96
2022-08-04T09:16:24.757Z,100351.16
2022-08-04T09:21:44.451Z,100345.56
2022-08-04T09:27:00.688Z,100350.84
2022-08-04T09:32:42.375Z,100342.13
2022-08-04T09:38:00.839Z,100345.69
2022-08-04T09:43:25.860Z,100343.69
2022-08-04T09:48:45.044Z,100341.07
2022-08-04T09:54:08.426Z,100343.63
2022-08-04T09:59:30.682Z,100338.77
2022-08-04T10:04:36.804Z,100339.04
2022-08-04T10:10:04.847Z,100333.29
2022-08-04T10:15:32.221Z,100334.00
2022-08-04T10:20:45.619Z,100326.55
2022-08-04T10:26:22.470Z,100329.98
2022-08-04T10:31:34.383Z,100322.02
2022-08-04T10:36:50.291Z,100320.39
2022-08-04T10:42:07.382Z,100320.99
2022-08-04T10:47:26.912Z,100321.30
2022-08-04T10:53:00.639Z,100315.41
2022-08-04T10:58:07.579Z,100311.95
2022-08-04T11:03:27.069Z,100316.41
2022-08-04T11:08:38.318Z,100308.81
2022-08-04T11:14:11.941Z,100308.16
2022-08-04T11:19:46.278Z,100305.24
2022-08-04T11:25:04.937Z,100307.77
2022-08-04T11:30:13.334Z,100305.97
2022-08-04T11:35:32.562Z,100304.59
2022-08-04T11:40:48.383Z,100301.31
2022-08-04T11:46:16.052Z,100301.58
2022-08-04T11:51:21.138Z,100297.20
2022-08-04T11:56:35.652Z,100296.23
2022-08-04T12:02:08.223Z,100295.44
2022-08-04T12:07:30.673Z,100295.39
2022-08-04T12:13:07.419Z,100291.20
2022-08-04T12:18:28.251Z,100292.23
2022-08-04T12:23:39.752Z,100291.27
2022-08-04T12:29:09.038Z,100290.52
2022-08-04T12:34:23.749Z,100288.66
2022-08-04T12:39:35.729Z,100280.88
2022-08-04T12:44:59.650Z,100282.61
2022-08-04T12:50:05.933Z,100279.46
2022-08-04T12:55:10.330Z,100272.08
2022-08-04T13:00:31.203Z,100270.39
2022-08-04T13:05:36.863Z,100273.03
2022-08-04T13:10:44.676Z,100271.88
2022-08-04T13:16:12.921Z,100265.58
2022-08-04T13:21:50.252Z,100261.10
2022-08-04T13:26:55.380Z,100259.83
2022-08-04T13:32:00.598Z,100261.62
2022-08-04T13:37:04.824Z,100252.77
2022-08-04T13:42:12.850Z,100251.08
2022-08-04T13:47:20.958Z,100248.97
2022-08-04T13:52:27.103Z,100245.85
2022-08-04T13:57:33.134Z,100240.36
2022-08-04T14:03:24.000Z,100241.45
2022-08-04T14:08:31.333Z,100242.98
2022-08-04T14:13:41.949Z,100242.69
2022-08-04T14:18:46.274Z,100245.22
2022-08-04T14:23:54.273Z,100244.41
2022-08-04T14:29:28.723Z,100242.86
2022-08-04T14:34:33.529Z,100243.58
2022-08-04T14:40:17.529Z,100242.21
2022-08-04T14:45:08.991Z,100238.90
2022-08-04T14:50:13.647Z,100236.63
2022-08-04T14:55:25.591Z,100241.23
2022-08-04T15:00:35.188Z,100237.52
2022-08-04T15:06:00.772Z,100232.96
2022-08-04T15:11:04.543Z,100230.38
2022-08-04T15:16:11.029Z,100224.37
2022-08-04T15:21:15.849Z,100224.16
2022-08-04T15:26:29.225Z,100221.94
2022-08-04T15:32:05.965Z,100219.70
2022-08-04T15:37:07.039Z,100222.23
2022-08-04T15:42:20.978Z,100212.23
2022-08-04T15:47:26.976Z,100209.31
2022-08-04T15:52:32.030Z,100205.02
2022-08-04T15:58:04.765Z,100199.54
2022-08-04T16:03:58.809Z,100194.13
2022-08-04T16:09:02.788Z,100184.92
2022-08-04T16:14:07.840Z,100181.45
2022-08-04T16:19:16.886Z,100170.80
2022-08-04T16:24:41.035Z,100166.78
2022-08-04T16:29:47.428Z,100168.30
2022-08-04T16:34:55.130Z,100167.65
2022-08-04T16:40:35.833Z,100169.55
2022-08-04T16:45:55.655Z,100171.73
2022-08-04T16:51:10.448Z,100174.27
2022-08-04T16:56:15.346Z,100171.34
2022-08-04T17:01:21.958Z,100169.77
2022-08-04T17:06:42.396Z,100169.99
2022-08-04T17:11:47.365Z,100168.98
2022-08-04T17:16:52.135Z,100167.28
2022-08-04T17:22:10.502Z,100167.58
2022-08-04T17:28:08.625Z,100162.11
2022-08-04T17:32:37.958Z,100161.59
2022-08-04T17:37:52.487Z,100160.67
2022-08-04T17:44:00.964Z,100159.21
2022-08-04T17:48:30.600Z,100162.11
2022-08-04T17:54:02.821Z,100160.30
2022-08-04T17:59:16.803Z,100166.13
2022-08-04T18:05:05.973Z,100168.09
2022-08-04T18:10:27.754Z,100170.12
2022-08-04T18:15:44.098Z,100170.04
2022-08-04T18:20:50.142Z,100175.11
2022-08-04T18:25:53.702Z,100179.27
2022-08-04T18:30:57.001Z,100178.76
2022-08-04T18:36:32.924Z,100175.45
2022-08-04T18:41:23.728Z,100180.72
2022-08-04T18:46:27.363Z,100179.84
2022-08-04T18:51:33.590Z,100180.90
2022-08-04T18:56:40.278Z,100179.13
2022-08-04T19:02:12.554Z,100178.55
2022-08-04T19:07:24.496Z,100178.84
2022-08-04T19:12:34.345Z,100179.77
2022-08-04T19:17:56.868Z,100182.07
2022-08-04T19:24:28.813Z,100186.36
2022-08-04T19:28:27.089Z,100189.41
2022-08-04T19:33:59.612Z,100182.09
2022-08-04T19:38:58.850Z,100182.81
2022-08-04T19:44:04.283Z,100184.97
2022-08-04T19:49:07.566Z,100183.98
2022-08-04T19:54:30.844Z,100191.68
2022-08-04T19:59:34.256Z,100194.09
2022-08-04T20:04:38.490Z,100192.16
2022-08-04T20:09:41.756Z,100187.20
2022-08-04T20:14:56.993Z,100190.84
2022-08-04T20:20:05.290Z,100190.14
2022-08-04T20:25:35.984Z,100193.37
2022-08-04T20:30:35.287Z,100197.27
2022-08-04T20:35:46.012Z,100197.44
2022-08-04T20:41:02.596Z,100198.05
2022-08-04T20:46:18.276Z,100201.30
2022-08-04T20:51:31.924Z,100195.27
2022-08-04T20:56:37.143Z,100190.21
2022-08-04T21:01:40.570Z,100196.34
2022-08-04T21:06:50.028Z,100203.05
2022-08-04T21:11:54.057Z,100206.02
2022-08-04T21:17:00.283Z,100203.84
2022-08-04T21:22:10.560Z,100200.88
2022-08-04T21:27:14.282Z,100207.07
2022-08-04T21:32:17.380Z,100200.25
2022-08-04T21:37:21.497Z,100198.50
2022-08-04T21:42:29.737Z,100193.14
2022-08-04T21:47:46.789Z,100195.77
2022-08-04T21:52:52.848Z,100203.88
2022-08-04T21:57:56.159Z,100208.27
2022-08-04T22:03:03.563Z,100204.55
2022-08-04T22:08:06.873Z,100205.88
2022-08-04T22:13:23.190Z,100200.58
2022-08-04T22:18:46.570Z,100197.84
2022-08-04T22:23:50.905Z,100198.14
2022-08-04T22:28:55.651Z,100201.67
2022-08-04T22:33:59.268Z,100200.70
2022-08-04T22:39:07.277Z,100196.57
2022-08-04T22:44:15.345Z,100193.34
2022-08-04T22:49:25.081Z,100188.07
2022-08-04T22:54:34.937Z,100183.84
2022-08-04T22:59:42.871Z,100184.59
2022-08-04T23:04:49.006Z,100178.59
2022-08-04T23:09:54.495Z,100176.69
2022-08-04T23:14:59.044Z,100171.83
2022-08-04T23:20:02.346Z,100165.15
2022-08-04T23:25:06.349Z,100164.34
2022-08-04T23:30:24.704Z,100167.36
2022-08-04T23:35:33.679Z,100163.38
2022-08-04T23:40:50.535Z,100156.64
2022-08-04T23:46:07.786Z,100152.02
2022-08-04T23:51:15.453Z,100148.56
2022-08-04T23:56:19.549Z,100141.66
